Flight Track Log - Related Links

Times and Time Zones

All times are in EDT time to prevent confusion due to time zone crossing. See the GGN7282 flight status page for this flight to view local times or setup timezone preferences in your user account.

Time Position Orientation Groundspeed Altitude Reporting Facility
EDT Latitude Longitude Course Direction KTS MPH feet Rate Location/Type
Wed 03:16:59 PM 43.6333 -79.6167 154° Southeast 140 161 1,500  Level Toronto Center
Wed 03:17:59 PM 43.5833 -79.5833 154° Southeast 190 219 2,600 1,100 Climbing Toronto Center
Wed 03:18:59 PM 43.5500 -79.5333 133° Southeast 210 242 3,700 1,150 Climbing Toronto Center
Wed 03:19:59 PM 43.5333 -79.4500 105° East 230 265 4,900 800 Climbing Toronto Center
Wed 03:20:59 PM 43.5167 -79.3500 103° East 260 299 5,300 550 Climbing Toronto Center
Wed 03:21:59 PM 43.5167 -79.2667 90° East 250 288 6,000 950 Climbing Toronto Center
Wed 03:22:59 PM 43.5000 -79.1667 103° East 260 299 7,200 1,600 Climbing Toronto Center
Wed 03:24:59 PM 43.4500 -79.0167 115° Southeast 210 242 10,800 1,367 Climbing Toronto Center
Wed 03:25:59 PM 43.4333 -78.9167 103° East 230 265 11,300 750 Climbing Toronto Center
Wed 03:26:59 PM 43.4000 -78.8500 125° Southeast 250 288 12,300 800 Climbing Toronto Center
Wed 03:27:59 PM 43.3500 -78.7667 130° Southeast 250 288 12,900 336 Climbing Toronto Center
Wed 03:29:04 PM 43.3117 -78.6944 126° Southeast 260 299 13,000 48 Climbing Cleveland Center
Wed 03:30:04 PM 43.2706 -78.6044 122° Southeast 267 307 13,000  Level Cleveland Center
Wed 03:31:04 PM 43.2275 -78.5233 126° Southeast 267 307 13,000  Level Cleveland Center
Wed 03:32:04 PM 43.1925 -78.4333 118° Southeast 267 307 13,000  Level Cleveland Center
Wed 03:33:04 PM 43.1906 -78.3308 91° East 252 290 13,000  Level Cleveland Center
Wed 03:34:04 PM 43.1844 -78.2286 95° East 258 297 13,000  Level Cleveland Center
Wed 03:35:04 PM 43.1761 -78.1264 96° East 263 303 13,000  Level Cleveland Center
Wed 03:36:04 PM 43.1675 -78.0214 96° East 270 311 13,000  Level Cleveland Center
Wed 03:37:04 PM 43.1589 -77.9164 96° East 276 318 13,000  Level Cleveland Center
Wed 03:38:04 PM 43.1506 -77.8256 97° East 276 318 13,000  Level Cleveland Center
Wed 03:39:04 PM 43.1439 -77.7208 95° East 276 318 13,000  Level Cleveland Center
Wed 03:40:04 PM 43.1331 -77.6189 98° East 276 318 13,000  Level Cleveland Center
Wed 03:41:04 PM 43.1242 -77.5167 97° East 276 318 13,000  Level Cleveland Center
Wed 03:42:04 PM 43.1150 -77.4119 97° East 276 318 13,000  Level Cleveland Center
Wed 03:43:04 PM 43.1058 -77.3072 97° East 276 318 13,000  Level Cleveland Center
Wed 03:45:04 PM 43.0872 -77.1033 97° East 276 318 13,000  Level Cleveland Center
Wed 03:46:04 PM 43.0800 -76.9986 95° East 276 318 13,000  Level Cleveland Center
Wed 03:47:54 PM 43.0625 -76.8144 97° East 272 313 13,000  Level Boston Center
Wed 03:48:55 PM 43.0539 -76.7114 96° East 277 319 13,000  Level Boston Center
Wed 03:49:55 PM 43.0456 -76.6028 96° East 277 319 13,000  Level Boston Center
Wed 03:50:55 PM 43.0347 -76.4997 98° East 277 319 13,000  Level Boston Center
Wed 03:51:53 PM 43.0258 -76.3969 97° East 277 319 13,000  Level Boston Center
Wed 03:52:53 PM 43.0147 -76.2911 98° East 277 319 13,000  Level Boston Center
Wed 03:53:54 PM 43.0056 -76.1883 97° East 277 319 13,000  Level Boston Center
Wed 03:54:54 PM 42.9944 -76.0853 98° East 277 319 13,000  Level Boston Center
Wed 03:55:55 PM 42.9853 -75.9825 97° East 277 319 13,000  Level Boston Center
Wed 03:56:52 PM 42.9717 -75.8739 100° East 277 319 13,000  Level Boston Center
Wed 03:57:53 PM 42.9625 -75.7628 96° East 277 319 13,000  Level Boston Center
Wed 03:58:53 PM 42.9511 -75.6572 98° East 277 319 13,000  Level Boston Center
Wed 03:59:54 PM 42.9414 -75.5544 97° East 277 319 13,000  Level Boston Center
Wed 04:00:55 PM 42.9297 -75.4489 99° East 277 319 13,000  Level Boston Center
Wed 04:01:53 PM 42.9197 -75.3464 98° East 277 319 13,000  Level Boston Center
Wed 04:02:54 PM 42.9078 -75.2436 99° East 277 319 13,000 -246 Level Boston Center
Wed 04:03:55 PM 42.8958 -75.1356 99° East 277 319 12,500 -756 Descending Boston Center
Wed 04:04:53 PM 42.8858 -75.0272 97° East 282 325 11,500 -763 Descending Boston Center
Wed 04:05:53 PM 42.8736 -74.9164 99° East 287 330 11,000 -198 Descending Boston Center
Wed 04:06:54 PM 42.8611 -74.8139 99° East 282 325 11,100 65 Climbing Boston Center
Wed 04:07:25 PM 42.8561 -74.7628 98° East 271 312 11,100  Level Boston Center
Wed 04:08:32 PM 42.8417 -74.6461 100° East 270 311 11,100  Level Boston Center
Wed 04:09:32 PM 42.8333 -74.5439 96° East 271 312 11,100 -242 Level Boston Center
Wed 04:10:36 PM 42.8267 -74.4417 95° East 277 319 10,600 -823 Descending Boston Center
Wed 04:11:36 PM 42.8264 -74.3311 90° East 295 339 9,400 -893 Descending Boston Center
Wed 04:12:37 PM 42.8303 -74.2236 87° East 290 334 8,800 -563 Descending Boston Center
Wed 04:13:44 PM 42.8322 -74.1019 89° East 279 321 8,200 -662 Descending Boston Center
Wed 04:14:53 PM 42.8361 -73.9747 88° East 284 327 7,300 -730 Descending Boston Center
Wed 04:15:39 PM 42.8372 -73.8956 89° East 284 327 6,800 -736 Descending Boston Center
Wed 04:16:39 PM 42.8406 -73.7908 87° East 275 316 6,000 -900 Descending Boston Center
Wed 04:17:39 PM 42.8436 -73.6917 88° East 256 295 5,000 -893 Descending Boston Center
Wed 04:18:40 PM 42.8406 -73.6011 93° East 246 283 4,200 -738 Descending Boston Center
Wed 04:19:49 PM 42.7889 -73.5406 139° Southeast 219 252 3,400 -645 Descending Boston Center
Wed 04:20:41 PM 42.7592 -73.5939 233° Southwest 202 232 2,900 -796 Descending Boston Center
Wed 04:21:42 PM 42.7522 -73.6728 263° West 206 237 1,900 -908 Descending Boston Center
Wed 04:22:40 PM 42.7494 -73.7436 267° West 205 236 1,100 -828 Descending Boston Center

Login

Don't have an account? Register now (free) for customized features, flight alerts, and more!